Main page
METAR-TAF:

METAR-TAF

Airports :

Aérodrome de Dax - Seyresse

Dax, France

latitude: 43-41N, longitude: 001-04W, elevation: 32 m

Current weather observation

The report was made 34 minutes ago, at 19:00 UTC
Wind 3 kt from the South/Southeast
Temperature 11°C
Humidity 71%
Pressure 1012 hPa
Visibility 10 km or more

METAR: LFBY 271900Z AUTO 16003KT 9999 // ////// 11/06 Q1012

Time: 20:34 (19:34 UTC)

Forecast

The report was made 11 hours and 34 minutes ago, at 08:00 UTC
Forecast valid from 27 at 09 UTC to 27 at 18 UTC
Wind 2 kt from variable directions
Visibility 10 km or more
no clouds below 1500 m and no cumulonimbus
Temporary
from 27 at 12 UTC to 27 at 15 UTC
Wind 7 kt from the South/Southwest with gusts up to 20 kt
Visibility 10 km or more
light rain
Becoming
from 27 at 15 UTC to 27 at 17 UTC
Visibility: 8000 m
Broken clouds at a height of 4000 ft

TAF: LFBY 270800Z 2709/2718 VRB02KT CAVOK TEMPO 2712/2715 20007G20KT 9999 -RA BECMG 2715/2717 8000 BKN040

Weather observations and forecasts of more than 4000 airports (METAR and TAF reports).

The available stations are represented by yellow and red dots on the map.

Hover mouse over dot to see the name of the station.

Then click to see weather observations and forecasts.

To change the map : click on the green buttons with a black cross to zoom in, on the green button with a dash to zoom out, or on the green arrows for adjacent maps.


METAR-TAF: